Time,TemperatureF,DewpointF,PressureIn,WindDirection,WindDirectionDegrees,WindSpeedMPH,WindSpeedGustMPH,Humidity,HourlyPrecipIn,Conditions,Clouds,dailyrainin,SoftwareType,DateUTC
2013-01-05 00:00:00,47.3,43.6,30.15,ESE,103,2.0,9.0,87,0.00,CLR,,0.00,WeatherDisplay:10.37,2013-01-05 08:00:00,
2013-01-05 00:15:00,46.0,42.3,30.15,SSW,197,1.0,3.0,87,0.00,CLR,,0.00,WeatherDisplay:10.37,2013-01-05 08:15:00,
2013-01-05 00:30:00,45.5,42.2,30.15,ESE,109,3.0,6.0,88,0.00,CLR,,0.00,WeatherDisplay:10.37,2013-01-05 08:30:00,
2013-01-05 00:45:00,46.2,44.9,30.15,East,98,5.0,6.0,95,0.00,CLR,,0.00,WeatherDisplay:10.37,2013-01-05 08:45:00,
2013-01-05 01:00:00,47.1,46.6,30.15,East,84,6.0,9.0,98,0.00,CLR,,0.00,WeatherDisplay:10.37,2013-01-05 09:00:00,
2013-01-05 01:15:00,47.1,46.6,30.15,East,87,6.0,7.0,98,0.00,CLR,,0.00,WeatherDisplay:10.37,2013-01-05 09:15:00,
2013-01-05 01:30:00,46.8,46.2,30.18,East,96,5.0,6.0,98,0.00,CLR,,0.00,WeatherDisplay:10.37,2013-01-05 09:30:00,
2013-01-05 01:45:00,46.6,46.0,30.18,East,92,6.0,6.0,98,0.00,CLR,,0.00,WeatherDisplay:10.37,2013-01-05 09:45:00,
2013-01-05 02:00:00,46.6,46.0,30.15,East,80,5.0,7.0,98,0.00,CLR,,0.00,WeatherDisplay:10.37,2013-01-05 10:00:00,
2013-01-05 02:15:00,46.4,45.9,30.15,East,97,5.0,7.0,98,0.00,CLR,,0.00,WeatherDisplay:10.37,2013-01-05 10:15:00,
2013-01-05 02:30:00,46.4,45.9,30.15,East,96,6.0,7.0,98,0.00,CLR,,0.00,WeatherDisplay:10.37,2013-01-05 10:30:00,
2013-01-05 02:45:00,46.2,45.7,30.15,East,101,5.0,7.0,98,0.00,CLR,,0.00,WeatherDisplay:10.37,2013-01-05 10:45:00,
2013-01-05 03:00:00,45.2,44.6,30.18,ESE,112,3.0,6.0,98,0.00,CLR,,0.00,WeatherDisplay:10.37,2013-01-05 11:00:00,
2013-01-05 03:15:00,44.6,44.1,30.18,ESE,107,3.0,5.0,98,0.00,CLR,,0.00,WeatherDisplay:10.37,2013-01-05 11:15:00,
2013-01-05 03:30:00,44.8,44.3,30.18,ESE,109,3.0,6.0,98,0.00,CLR,,0.00,WeatherDisplay:10.37,2013-01-05 11:30:00,
2013-01-05 03:45:00,45.5,45.0,30.15,East,99,3.0,6.0,98,0.00,CLR,,0.00,WeatherDisplay:10.37,2013-01-05 11:45:00,
2013-01-05 04:00:00,46.0,45.5,30.15,ESE,103,3.0,6.0,98,0.00,CLR,,0.00,WeatherDisplay:10.37,2013-01-05 12:00:00,
2013-01-05 04:15:00,46.6,46.0,30.15,ESE,114,2.0,6.0,98,0.00,CLR,,0.00,WeatherDisplay:10.37,2013-01-05 12:15:00,
2013-01-05 04:30:00,47.3,46.8,30.15,ESE,117,3.0,6.0,98,0.00,CLR,,0.00,WeatherDisplay:10.37,2013-01-05 12:30:00,
2013-01-05 04:45:00,47.7,47.1,30.18,ESE,107,3.0,6.0,98,0.00,CLR,,0.00,WeatherDisplay:10.37,2013-01-05 12:45:00,
2013-01-05 05:00:00,47.1,46.6,30.18,ESE,117,2.0,6.0,98,0.00,CLR,,0.00,WeatherDisplay:10.37,2013-01-05 13:00:00,
2013-01-05 05:15:00,48.0,47.5,30.15,SE,126,3.0,5.0,98,0.00,CLR,,0.00,WeatherDisplay:10.37,2013-01-05 13:15:00,
2013-01-05 05:30:00,48.4,47.8,30.18,East,100,3.0,7.0,98,0.00,CLR,,0.00,WeatherDisplay:10.37,2013-01-05 13:30:00,
2013-01-05 05:45:00,48.9,48.4,30.18,East,95,3.0,6.0,98,0.00,CLR,,0.00,WeatherDisplay:10.37,2013-01-05 13:45:00,
2013-01-05 06:00:00,48.7,48.2,30.18,East,96,3.0,6.0,98,0.00,CLR,,0.00,WeatherDisplay:10.37,2013-01-05 14:00:00,
2013-01-05 06:15:00,49.1,48.6,30.18,East,90,6.0,6.0,98,0.00,CLR,,0.00,WeatherDisplay:10.37,2013-01-05 14:15:00,
2013-01-05 06:30:00,49.3,48.7,30.18,East,98,3.0,6.0,98,0.00,CLR,,0.00,WeatherDisplay:10.37,2013-01-05 14:30:00,
2013-01-05 06:45:00,49.5,48.9,30.18,East,90,6.0,7.0,98,0.00,CLR,,0.00,WeatherDisplay:10.37,2013-01-05 14:45:00,
2013-01-05 07:00:00,49.5,48.9,30.18,East,84,6.0,7.0,98,0.00,CLR,,0.00,WeatherDisplay:10.37,2013-01-05 15:00:00,
2013-01-05 07:15:00,49.3,48.7,30.18,East,91,3.0,7.0,98,0.00,CLR,,0.00,WeatherDisplay:10.37,2013-01-05 15:15:00,
2013-01-05 07:30:00,49.7,49.2,30.18,East,99,7.0,8.0,98,0.00,CLR,,0.00,WeatherDisplay:10.37,2013-01-05 15:30:00,
2013-01-05 07:45:00,50.2,49.6,30.18,ESE,105,6.0,7.0,98,0.00,CLR,,0.00,WeatherDisplay:10.37,2013-01-05 15:45:00,
2013-01-05 08:00:00,50.2,49.6,30.18,East,101,6.0,9.0,98,0.00,CLR,,0.00,WeatherDisplay:10.37,2013-01-05 16:00:00,
2013-01-05 08:15:00,50.5,50.0,30.18,East,88,7.0,9.0,98,0.00,CLR,,0.00,WeatherDisplay:10.37,2013-01-05 16:15:00,
2013-01-05 08:30:00,50.4,49.9,30.18,East,94,8.0,10.0,98,0.00,CLR,,0.00,WeatherDisplay:10.37,2013-01-05 16:30:00,
2013-01-05 08:45:00,50.8,50.3,30.18,ESE,106,6.0,9.0,98,0.00,CLR,,0.00,WeatherDisplay:10.37,2013-01-05 16:45:00,
2013-01-05 09:00:00,51.9,51.3,30.18,ESE,112,5.0,9.0,98,0.00,CLR,,0.00,WeatherDisplay:10.37,2013-01-05 17:00:00,
2013-01-05 09:15:00,52.7,52.2,30.18,ESE,116,5.0,9.0,98,0.00,CLR,,0.00,WeatherDisplay:10.37,2013-01-05 17:15:00,
2013-01-05 09:30:00,53.1,52.5,30.18,ESE,115,5.0,8.0,98,0.00,CLR,,0.00,WeatherDisplay:10.37,2013-01-05 17:30:00,
2013-01-05 09:45:00,53.3,52.5,30.18,ESE,116,8.0,10.0,97,0.00,CLR,,0.00,WeatherDisplay:10.37,2013-01-05 17:45:00,
2013-01-05 10:00:00,53.6,52.2,30.18,ESE,117,9.0,14.0,95,0.00,CLR,,0.00,WeatherDisplay:10.37,2013-01-05 18:00:00,
2013-01-05 10:15:00,54.2,52.6,30.15,SE,125,7.0,17.0,94,0.00,CLR,,0.00,WeatherDisplay:10.37,2013-01-05 18:15:00,
2013-01-05 10:30:00,55.0,53.3,30.15,SSE,160,6.0,17.0,94,0.00,CLR,,0.00,WeatherDisplay:10.37,2013-01-05 18:30:00,
2013-01-05 10:45:00,55.3,53.3,30.18,SE,125,5.0,8.0,93,0.00,CLR,,0.00,WeatherDisplay:10.37,2013-01-05 18:45:00,
2013-01-05 11:00:00,55.6,53.4,30.18,SE,128,6.0,9.0,92,0.00,CLR,,0.00,WeatherDisplay:10.37,2013-01-05 19:00:00,
2013-01-05 11:15:00,56.6,54.3,30.18,SE,133,5.0,9.0,92,0.00,CLR,,0.00,WeatherDisplay:10.37,2013-01-05 19:15:00,
2013-01-05 11:30:00,56.8,54.5,30.15,ESE,118,3.0,7.0,92,0.00,CLR,,0.00,WeatherDisplay:10.37,2013-01-05 19:30:00,
2013-01-05 11:45:00,57.2,54.6,30.15,ESE,119,2.0,5.0,91,0.00,CLR,,0.00,WeatherDisplay:10.37,2013-01-05 19:45:00,
2013-01-05 12:00:00,57.0,54.4,30.15,ESE,108,2.0,6.0,91,0.00,CLR,,0.00,WeatherDisplay:10.37,2013-01-05 20:00:00,
2013-01-05 12:15:00,56.3,53.7,30.12,ESE,115,5.0,9.0,91,0.00,CLR,,0.00,WeatherDisplay:10.37,2013-01-05 20:15:00,
2013-01-05 12:30:00,56.4,54.1,30.12,ESE,119,2.0,10.0,92,0.00,CLR,,0.00,WeatherDisplay:10.37,2013-01-05 20:30:00,
2013-01-05 12:45:00,56.8,54.5,30.12,SE,124,3.0,5.0,92,0.00,CLR,,0.00,WeatherDisplay:10.37,2013-01-05 20:45:00,
2013-01-05 13:00:00,56.3,53.4,30.12,ESE,113,6.0,9.0,90,0.00,CLR,,0.00,WeatherDisplay:10.37,2013-01-05 21:00:00,
2013-01-05 13:15:00,56.5,53.9,30.09,SSE,153,1.0,7.0,91,0.00,CLR,,0.00,WeatherDisplay:10.37,2013-01-05 21:15:00,
2013-01-05 13:30:00,56.4,53.8,30.09,SE,141,0.0,6.0,91,0.00,CLR,,0.00,WeatherDisplay:10.37,2013-01-05 21:30:00,
2013-01-05 13:45:00,56.1,53.5,30.09,SSW,197,3.0,6.0,91,0.00,CLR,,0.00,WeatherDisplay:10.37,2013-01-05 21:45:00,
2013-01-05 14:00:00,55.9,53.9,30.09,South,190,8.0,10.0,93,0.00,CLR,,0.00,WeatherDisplay:10.37,2013-01-05 22:00:00,
2013-01-05 14:15:00,55.9,53.9,30.09,SSE,164,5.0,10.0,93,0.00,CLR,,0.00,WeatherDisplay:10.37,2013-01-05 22:15:00,
2013-01-05 14:30:00,55.9,54.2,30.09,SSE,152,3.0,9.0,94,0.00,CLR,,0.00,WeatherDisplay:10.37,2013-01-05 22:30:00,
2013-01-05 14:45:00,55.4,53.7,30.06,SE,145,3.0,9.0,94,0.00,CLR,,0.00,WeatherDisplay:10.37,2013-01-05 22:45:00,
2013-01-05 15:00:00,55.0,53.9,30.06,SE,132,0.0,6.0,96,0.00,CLR,,0.00,WeatherDisplay:10.37,2013-01-05 23:00:00,
2013-01-05 15:15:00,54.2,53.0,30.06,ESE,120,0.0,5.0,96,0.00,CLR,,0.00,WeatherDisplay:10.37,2013-01-05 23:15:00,
2013-01-05 15:30:00,53.2,52.4,30.06,SE,132,3.0,4.0,97,0.00,CLR,,0.00,WeatherDisplay:10.37,2013-01-05 23:30:00,
2013-01-05 15:45:00,52.5,52.0,30.06,SE,125,2.0,5.0,98,0.00,CLR,,0.00,WeatherDisplay:10.37,2013-01-05 23:45:00,
2013-01-05 16:00:00,52.0,51.4,30.06,ESE,122,0.0,5.0,98,0.00,CLR,,0.00,WeatherDisplay:10.37,2013-01-06 00:00:00,
2013-01-05 16:15:00,51.6,51.1,30.06,ENE,75,0.0,2.0,98,0.00,CLR,,0.00,WeatherDisplay:10.37,2013-01-06 00:15:00,
2013-01-05 16:30:00,51.6,51.1,30.06,ESE,116,2.0,3.0,98,0.00,CLR,,0.00,WeatherDisplay:10.37,2013-01-06 00:30:00,
2013-01-05 16:45:00,51.4,50.9,30.06,ESE,119,2.0,4.0,98,0.00,CLR,,0.00,WeatherDisplay:10.37,2013-01-06 00:45:00,
2013-01-05 17:00:00,51.1,50.5,30.06,ESE,118,0.0,3.0,98,0.00,CLR,,0.00,WeatherDisplay:10.37,2013-01-06 01:00:00,
2013-01-05 17:15:00,50.9,50.4,30.06,ESE,115,1.0,3.0,98,0.00,CLR,,0.00,WeatherDisplay:10.37,2013-01-06 01:15:00,
2013-01-05 17:30:00,50.9,50.4,30.06,ESE,114,0.0,3.0,98,0.00,CLR,,0.00,WeatherDisplay:10.37,2013-01-06 01:30:00,
2013-01-05 17:45:00,50.9,50.4,30.06,ESE,111,0.0,3.0,98,0.00,CLR,,0.00,WeatherDisplay:10.37,2013-01-06 01:45:00,
2013-01-05 18:00:00,50.7,50.2,30.03,SSE,156,0.0,3.0,98,0.00,CLR,,0.00,WeatherDisplay:10.37,2013-01-06 02:00:00,
2013-01-05 18:15:00,50.7,50.2,30.03,ESE,113,0.0,2.0,98,0.00,CLR,,0.00,WeatherDisplay:10.37,2013-01-06 02:15:00,
2013-01-05 18:30:00,50.7,50.2,30.03,ESE,122,1.0,5.0,98,0.00,CLR,,0.00,WeatherDisplay:10.37,2013-01-06 02:30:00,
2013-01-05 18:45:00,50.9,50.4,30.03,SSE,168,0.0,3.0,98,0.00,CLR,,0.00,WeatherDisplay:10.37,2013-01-06 02:45:00,
2013-01-05 19:00:00,50.9,50.4,30.03,ESE,121,0.0,5.0,98,0.00,CLR,,0.00,WeatherDisplay:10.37,2013-01-06 03:00:00,
2013-01-05 19:15:00,50.9,50.4,30.03,SSE,158,1.0,6.0,98,0.00,CLR,,0.00,WeatherDisplay:10.37,2013-01-06 03:15:00,
2013-01-05 19:30:00,51.1,50.5,30.03,SSW,203,5.0,7.0,98,0.00,CLR,,0.00,WeatherDisplay:10.37,2013-01-06 03:30:00,
2013-01-05 19:45:00,51.1,50.5,30.03,SSE,164,2.0,7.0,98,0.00,CLR,,0.00,WeatherDisplay:10.37,2013-01-06 03:45:00,
2013-01-05 20:00:00,51.1,50.5,30.03,SE,140,1.0,5.0,98,0.00,CLR,,0.00,WeatherDisplay:10.37,2013-01-06 04:00:00,
2013-01-05 20:15:00,50.8,50.2,30.03,WSW,249,2.0,10.0,98,0.00,CLR,,0.00,WeatherDisplay:10.37,2013-01-06 04:15:00,
2013-01-05 20:30:00,50.9,50.4,30.03,SW,230,1.0,5.0,98,0.00,CLR,,0.00,WeatherDisplay:10.37,2013-01-06 04:30:00,
2013-01-05 20:45:00,50.7,50.2,30.00,ESE,121,0.0,1.0,98,0.00,CLR,,0.00,WeatherDisplay:10.37,2013-01-06 04:45:00,
2013-01-05 21:15:00,51.0,50.5,30.03,WSW,243,5.0,8.0,98,0.00,CLR,,0.00,WeatherDisplay:10.37,2013-01-06 05:15:00,
2013-01-05 21:30:00,51.4,50.9,30.03,WSW,246,8.0,10.0,98,0.00,CLR,,0.00,WeatherDisplay:10.37,2013-01-06 05:30:00,
2013-01-05 21:45:00,51.6,51.1,30.03,WSW,244,8.0,12.0,98,0.00,CLR,,0.00,WeatherDisplay:10.37,2013-01-06 05:45:00,
2013-01-05 22:00:00,51.8,51.3,30.03,SW,226,6.0,10.0,98,0.00,CLR,,0.00,WeatherDisplay:10.37,2013-01-06 06:00:00,
2013-01-05 22:15:00,51.6,51.1,30.00,SW,223,7.0,10.0,98,0.00,CLR,,0.00,WeatherDisplay:10.37,2013-01-06 06:15:00,
2013-01-05 22:30:00,52.0,51.4,30.03,WSW,255,8.0,14.0,98,0.00,CLR,,0.00,WeatherDisplay:10.37,2013-01-06 06:30:00,
2013-01-05 22:45:00,51.8,51.3,30.03,WSW,241,6.0,12.0,98,0.00,CLR,,0.00,WeatherDisplay:10.37,2013-01-06 06:45:00,
2013-01-05 23:00:00,51.4,50.8,30.03,WSW,239,5.0,10.0,98,0.00,CLR,,0.00,WeatherDisplay:10.37,2013-01-06 07:00:00,
2013-01-05 23:15:00,51.1,50.5,30.03,South,187,2.0,6.0,98,0.00,CLR,,0.00,WeatherDisplay:10.37,2013-01-06 07:15:00,
2013-01-05 23:30:00,51.1,50.5,30.03,SSW,199,2.0,5.0,98,0.00,CLR,,0.00,WeatherDisplay:10.37,2013-01-06 07:30:00,
2013-01-05 23:45:00,51.1,50.5,30.00,South,191,1.0,7.0,98,0.00,CLR,,0.00,WeatherDisplay:10.37,2013-01-06 07:45:00,